Time;durP1;ratioP1;P1;durP2;ratioP2;P2;SDS_P1;SDS_P2;PMS_P1;PMS_P2;Temp;Humidity;BMP_temperature;BMP_pressure;BME280_temperature;BME280_humidity;BME280_pressure;Samples;Min_cycle;Max_cycle;Signal;HPM_P1;HPM_P2
2023/06/22 00:01:31;;;;;;;20.80;11.07;;;;;;;;;;6265409;28;20422;-73
2023/06/22 00:04:32;;;;;;;13.87;10.97;;;;;;;;;;6269605;28;20037;-73
2023/06/22 00:07:32;;;;;;;18.80;11.65;;;;;;;;;;6267925;28;20465;-73
2023/06/22 00:10:32;;;;;;;16.37;11.53;;;;;;;;;;6267143;28;20021;-73
2023/06/22 00:13:32;;;;;;;13.30;9.33;;;;;;;;;;6267575;28;20065;-73
2023/06/22 00:16:33;;;;;;;15.52;11.35;;;;;;;;;;6271825;28;20067;-73
2023/06/22 00:19:35;;;;;;;18.13;10.20;;;;;;;;;;6277219;28;20013;-73
2023/06/22 00:22:38;;;;;;;16.13;9.68;;;;;;;;;;6277084;28;20021;-82
2023/06/22 00:25:41;;;;;;;16.65;9.23;;;;;;;;;;6271169;28;20021;-81
2023/06/22 00:28:41;;;;;;;15.88;9.75;;;;;;;;;;6274633;28;20555;-83
2023/06/22 00:31:41;;;;;;;12.47;9.63;;;;;;;;;;6273037;28;20014;-73
2023/06/22 00:34:42;;;;;;;14.50;10.50;;;;;;;;;;6269956;28;20017;-73
2023/06/22 00:37:42;;;;;;;21.37;12.53;;;;;;;;;;6271532;28;20013;-73
2023/06/22 00:40:42;;;;;;;19.50;11.65;;;;;;;;;;6270600;28;20067;-73
2023/06/22 00:43:42;;;;;;;21.53;10.70;;;;;;;;;;6265007;28;20017;-73
2023/06/22 00:46:43;;;;;;;18.20;11.03;;;;;;;;;;6271176;28;20040;-74
2023/06/22 00:49:43;;;;;;;13.70;10.23;;;;;;;;;;6262385;28;20009;-73
2023/06/22 00:52:44;;;;;;;17.97;9.10;;;;;;;;;;6268814;28;20028;-74
2023/06/22 00:55:51;;;;;;;13.77;7.97;;;;;;;;;;6273883;28;20021;-74
2023/06/22 00:58:52;;;;;;;16.05;8.65;;;;;;;;;;6267636;28;20267;-74
2023/06/22 01:01:53;;;;;;;17.60;9.35;;;;;;;;;;6270898;28;20078;-74
2023/06/22 01:04:55;;;;;;;16.73;8.03;;;;;;;;;;6273941;28;20024;-74
2023/06/22 01:08:01;;;;;;;13.75;7.45;;;;;;;;;;6270600;28;20036;-74
2023/06/22 01:11:07;;;;;;;16.02;8.77;;;;;;;;;;6264002;28;20021;-73
2023/06/22 01:14:26;;;;;;;16.25;7.78;;;;;;;;;;6259987;28;20041;-84
2023/06/22 01:17:27;;;;;;;17.25;8.95;;;;;;;;;;6267509;28;20035;-81
2023/06/22 01:20:27;;;;;;;14.03;7.97;;;;;;;;;;6270866;28;20028;-82
2023/06/22 01:23:51;;;;;;;21.77;7.10;;;;;;;;;;6270791;28;20025;-73
2023/06/22 01:27:10;;;;;;;16.13;7.28;;;;;;;;;;6268675;28;20024;-73
2023/06/22 01:30:13;;;;;;;13.10;8.07;;;;;;;;;;6270426;28;20013;-74
2023/06/22 01:33:15;;;;;;;14.60;7.32;;;;;;;;;;6277432;28;20119;-74
2023/06/22 01:36:16;;;;;;;13.82;7.30;;;;;;;;;;6270295;28;20063;-73
2023/06/22 01:39:16;;;;;;;16.25;8.00;;;;;;;;;;6251604;28;20025;-74
2023/06/22 01:42:17;;;;;;;10.97;5.97;;;;;;;;;;6269685;28;20494;-73
2023/06/22 01:45:18;;;;;;;16.27;7.60;;;;;;;;;;6268478;28;20043;-74
2023/06/22 01:48:19;;;;;;;16.85;8.68;;;;;;;;;;6269589;28;20021;-74
2023/06/22 01:51:19;;;;;;;14.00;7.70;;;;;;;;;;6270940;28;20055;-74
2023/06/22 01:54:19;;;;;;;15.80;7.73;;;;;;;;;;6266655;28;20021;-74
2023/06/22 01:57:20;;;;;;;11.13;7.33;;;;;;;;;;6269055;28;20028;-75
2023/06/22 02:00:22;;;;;;;12.37;8.63;;;;;;;;;;6271956;28;20027;-74
2023/06/22 02:03:25;;;;;;;15.75;8.02;;;;;;;;;;6265741;28;20104;-74
2023/06/22 02:06:29;;;;;;;19.30;8.70;;;;;;;;;;6264578;28;20017;-74
2023/06/22 02:09:31;;;;;;;15.35;7.18;;;;;;;;;;6269758;28;20428;-74
2023/06/22 02:12:31;;;;;;;12.52;7.60;;;;;;;;;;6268875;28;20394;-74
2023/06/22 02:15:32;;;;;;;14.80;7.97;;;;;;;;;;6268280;28;20072;-74
2023/06/22 02:18:32;;;;;;;13.20;7.53;;;;;;;;;;6270361;28;20028;-74
2023/06/22 02:21:32;;;;;;;14.90;7.47;;;;;;;;;;6270782;28;20071;-74
2023/06/22 02:24:33;;;;;;;14.50;8.15;;;;;;;;;;6268679;28;20490;-74
2023/06/22 02:27:34;;;;;;;22.23;10.33;;;;;;;;;;6265264;28;20132;-73
2023/06/22 02:30:34;;;;;;;18.92;9.35;;;;;;;;;;6266276;28;20523;-73
2023/06/22 02:33:35;;;;;;;15.47;7.67;;;;;;;;;;6268709;28;20481;-73
2023/06/22 02:36:35;;;;;;;16.37;8.97;;;;;;;;;;6263691;28;20013;-74
2023/06/22 02:39:35;;;;;;;19.83;8.83;;;;;;;;;;6267958;28;20028;-74
2023/06/22 02:42:36;;;;;;;17.17;8.83;;;;;;;;;;6265885;28;20025;-80
2023/06/22 02:45:36;;;;;;;13.73;8.57;;;;;;;;;;6267159;28;20028;-80
2023/06/22 02:48:36;;;;;;;16.73;8.45;;;;;;;;;;6267990;28;20041;-80
2023/06/22 02:51:39;;;;;;;20.20;9.80;;;;;;;;;;6263141;28;20009;-74
2023/06/22 02:54:39;;;;;;;18.77;8.38;;;;;;;;;;6265559;28;20028;-74
2023/06/22 02:57:43;;;;;;;18.58;8.48;;;;;;;;;;6263402;28;20084;-74
2023/06/22 03:00:43;;;;;;;14.95;9.18;;;;;;;;;;6266647;28;20159;-74
2023/06/22 03:03:43;;;;;;;16.43;9.50;;;;;;;;;;6271892;28;20071;-81
2023/06/22 03:06:44;;;;;;;20.27;9.17;;;;;;;;;;6270998;28;20119;-82
2023/06/22 03:09:44;;;;;;;21.67;9.00;;;;;;;;;;6251872;28;20028;-81
2023/06/22 03:12:44;;;;;;;14.33;8.07;;;;;;;;;;6266598;28;20029;-81
2023/06/22 03:15:45;;;;;;;14.60;7.53;;;;;;;;;;6264679;28;20033;-82
2023/06/22 03:18:46;;;;;;;16.75;8.10;;;;;;;;;;6271254;28;20095;-81
2023/06/22 03:21:46;;;;;;;17.27;9.83;;;;;;;;;;6250981;28;20027;-82
2023/06/22 03:24:46;;;;;;;16.07;9.90;;;;;;;;;;6267557;28;20021;-83
2023/06/22 03:27:48;;;;;;;17.20;9.68;;;;;;;;;;6267128;28;20029;-80
2023/06/22 03:30:48;;;;;;;;;;;;;;;;;;6267766;28;20024;-83
2023/06/22 03:33:49;;;;;;;16.33;9.27;;;;;;;;;;6270208;28;19908;-83
2023/06/22 03:36:49;;;;;;;21.87;9.63;;;;;;;;;;6268595;28;20017;-81
2023/06/22 03:39:49;;;;;;;19.30;9.17;;;;;;;;;;6267415;28;20052;-82
2023/06/22 03:42:49;;;;;;;14.88;8.93;;;;;;;;;;6267292;28;20047;-81
2023/06/22 03:45:50;;;;;;;19.47;9.70;;;;;;;;;;6267033;28;20060;-81
2023/06/22 03:48:50;;;;;;;20.60;9.83;;;;;;;;;;6272341;28;20672;-83
2023/06/22 03:51:50;;;;;;;16.80;10.52;;;;;;;;;;6271926;28;20472;-82
2023/06/22 03:54:51;;;;;;;16.55;9.70;;;;;;;;;;6273991;28;20101;-81
2023/06/22 03:57:53;;;;;;;23.67;10.30;;;;;;;;;;6279316;28;20029;-82
2023/06/22 04:00:53;;;;;;;16.85;9.10;;;;;;;;;;6271398;28;20040;-81
2023/06/22 04:03:53;;;;;;;19.07;9.87;;;;;;;;;;6274893;28;20638;-75
2023/06/22 04:06:53;;;;;;;18.92;10.15;;;;;;;;;;6272576;28;20021;-74
2023/06/22 04:09:53;;;;;;;17.13;9.53;;;;;;;;;;6278657;28;20021;-74
2023/06/22 04:12:54;;;;;;;16.83;7.90;;;;;;;;;;6274327;28;20017;-83
2023/06/22 04:15:54;;;;;;;20.30;9.57;;;;;;;;;;6271557;28;20024;-83
2023/06/22 04:18:54;;;;;;;13.67;9.27;;;;;;;;;;6271508;28;20374;-81
2023/06/22 04:21:54;;;;;;;19.60;9.23;;;;;;;;;;6278374;28;20542;-83
2023/06/22 04:24:55;;;;;;;20.63;10.13;;;;;;;;;;6277608;28;20033;-83
2023/06/22 04:27:55;;;;;;;14.50;8.93;;;;;;;;;;6270676;28;20037;-82
2023/06/22 04:30:58;;;;;;;18.47;8.30;;;;;;;;;;6271868;28;20433;-83
2023/06/22 04:34:05;;;;;;;16.70;8.18;;;;;;;;;;6271919;28;20021;-83
2023/06/22 04:37:06;;;;;;;18.48;9.82;;;;;;;;;;6270595;28;20107;-81
2023/06/22 04:40:06;;;;;;;19.13;9.38;;;;;;;;;;6252368;28;20013;-82
2023/06/22 04:43:06;;;;;;;18.53;10.23;;;;;;;;;;6268314;28;20017;-83
2023/06/22 04:46:07;;;;;;;16.73;9.00;;;;;;;;;;6269547;28;20017;-80
2023/06/22 04:49:09;;;;;;;19.65;9.32;;;;;;;;;;6270238;28;20041;-82
2023/06/22 04:52:10;;;;;;;17.65;10.07;;;;;;;;;;6263066;28;20075;-82
2023/06/22 04:55:10;;;;;;;18.00;11.27;;;;;;;;;;6271589;28;20008;-83
2023/06/22 04:58:12;;;;;;;16.77;11.00;;;;;;;;;;6271010;28;20021;-81
2023/06/22 05:01:12;;;;;;;17.38;11.40;;;;;;;;;;6272639;28;20016;-82
2023/06/22 05:04:13;;;;;;;21.50;13.15;;;;;;;;;;6270690;28;20028;-78
2023/06/22 05:07:13;;;;;;;20.60;13.97;;;;;;;;;;6269306;28;20100;-79
2023/06/22 05:10:14;;;;;;;18.87;13.20;;;;;;;;;;6270315;28;20044;-80
2023/06/22 05:13:14;;;;;;;24.55;14.98;;;;;;;;;;6268540;28;20163;-78
2023/06/22 05:16:14;;;;;;;26.45;15.55;;;;;;;;;;6269898;28;20502;-78
2023/06/22 05:19:14;;;;;;;24.60;14.87;;;;;;;;;;6270036;28;20029;-80
2023/06/22 05:22:15;;;;;;;21.53;15.13;;;;;;;;;;6269996;28;20025;-73
2023/06/22 05:25:15;;;;;;;21.10;14.80;;;;;;;;;;6269269;28;20032;-74
2023/06/22 05:28:16;;;;;;;20.97;14.73;;;;;;;;;;6269710;28;20275;-74
2023/06/22 05:31:16;;;;;;;23.10;16.40;;;;;;;;;;6269550;28;20028;-79
2023/06/22 05:34:17;;;;;;;28.60;17.10;;;;;;;;;;6269748;28;20316;-79
2023/06/22 05:37:17;;;;;;;27.33;19.03;;;;;;;;;;6269427;28;20278;-79
2023/06/22 05:40:17;;;;;;;23.50;17.03;;;;;;;;;;6250593;28;20085;-79
2023/06/22 05:43:17;;;;;;;21.20;16.47;;;;;;;;;;6263233;28;20018;-80
2023/06/22 05:46:18;;;;;;;24.02;16.58;;;;;;;;;;6270271;28;20028;-79
2023/06/22 05:49:19;;;;;;;25.33;18.02;;;;;;;;;;6242679;28;20017;-80
2023/06/22 05:52:19;;;;;;;22.87;18.17;;;;;;;;;;6270017;28;20475;-79
2023/06/22 05:55:19;;;;;;;;;;;;;;;;;;6269700;28;20494;-80
2023/06/22 05:58:19;;;;;;;26.00;20.17;;;;;;;;;;6268711;28;19957;-80
2023/06/22 06:01:20;;;;;;;;;;;;;;;;;;6269391;28;21667;-80
2023/06/22 06:04:20;;;;;;;25.90;22.48;;;;;;;;;;6264875;28;20366;-82
2023/06/22 06:07:21;;;;;;;26.70;21.20;;;;;;;;;;6267336;28;20031;-81
2023/06/22 06:10:21;;;;;;;;;;;;;;;;;;6266024;28;20021;-83
2023/06/22 06:13:21;;;;;;;27.30;20.05;;;;;;;;;;6248735;28;19955;-84
2023/06/22 06:16:22;;;;;;;24.80;19.92;;;;;;;;;;6266248;28;20021;-84
2023/06/22 06:19:22;;;;;;;31.30;20.33;;;;;;;;;;6267898;28;20051;-83
2023/06/22 06:22:23;;;;;;;27.67;20.27;;;;;;;;;;6266783;28;20024;-82
2023/06/22 06:25:23;;;;;;;24.75;18.27;;;;;;;;;;6266702;28;20084;-81
2023/06/22 06:28:24;;;;;;;28.15;20.55;;;;;;;;;;6264993;28;20475;-81
2023/06/22 06:31:27;;;;;;;23.45;18.00;;;;;;;;;;6262781;28;20013;-82
2023/06/22 06:34:27;;;;;;;20.67;17.05;;;;;;;;;;6267052;28;20086;-83
2023/06/22 06:37:27;;;;;;;29.38;19.35;;;;;;;;;;6266890;28;20056;-83
2023/06/22 06:40:28;;;;;;;29.23;15.73;;;;;;;;;;6267980;28;20613;-84
2023/06/22 06:43:28;;;;;;;25.57;16.20;;;;;;;;;;6271448;28;20270;-83
2023/06/22 06:46:28;;;;;;;29.03;16.93;;;;;;;;;;6268124;28;20028;-84
2023/06/22 06:49:28;;;;;;;20.55;14.73;;;;;;;;;;6249618;28;20027;-84
2023/06/22 06:52:29;;;;;;;22.53;15.47;;;;;;;;;;6267397;28;20020;-75
2023/06/22 06:55:32;;;;;;;19.80;14.77;;;;;;;;;;6268549;28;20247;-75
2023/06/22 06:58:32;;;;;;;24.58;16.08;;;;;;;;;;6261560;28;20017;-75
2023/06/22 07:01:33;;;;;;;21.67;14.80;;;;;;;;;;6268260;28;20028;-75
2023/06/22 07:04:33;;;;;;;20.25;13.20;;;;;;;;;;6249730;28;20029;-75
2023/06/22 07:07:34;;;;;;;20.47;13.20;;;;;;;;;;6267179;28;20025;-75
2023/06/22 07:10:34;;;;;;;17.40;13.30;;;;;;;;;;6272449;28;20023;-75
2023/06/22 07:13:36;;;;;;;18.60;12.20;;;;;;;;;;6267154;28;20511;-75
2023/06/22 07:16:36;;;;;;;12.90;11.05;;;;;;;;;;6267029;28;20471;-75
2023/06/22 07:19:36;;;;;;;17.83;11.50;;;;;;;;;;6267102;28;20025;-74
2023/06/22 07:22:36;;;;;;;16.17;11.97;;;;;;;;;;6260943;28;20514;-74
2023/06/22 07:25:37;;;;;;;16.40;12.43;;;;;;;;;;6262847;28;20074;-75
2023/06/22 07:28:38;;;;;;;16.58;11.38;;;;;;;;;;6262025;28;20399;-75
2023/06/22 07:31:40;;;;;;;12.63;10.60;;;;;;;;;;6267137;28;20020;-84
2023/06/22 07:34:41;;;;;;;14.50;11.60;;;;;;;;;;6248497;28;20021;-84
2023/06/22 07:37:42;;;;;;;15.82;10.27;;;;;;;;;;6266349;28;20426;-83
2023/06/22 07:40:43;;;;;;;10.50;7.93;;;;;;;;;;6265480;28;20017;-81
2023/06/22 07:43:43;;;;;;;10.57;7.45;;;;;;;;;;6266564;28;20017;-84
2023/06/22 07:46:43;;;;;;;10.80;7.60;;;;;;;;;;6265417;28;20020;-84
2023/06/22 07:49:44;;;;;;;12.38;7.60;;;;;;;;;;6266727;28;20029;-83
2023/06/22 07:52:44;;;;;;;11.63;7.53;;;;;;;;;;6266583;28;20091;-82
2023/06/22 07:55:44;;;;;;;10.52;6.90;;;;;;;;;;6266974;28;20014;-82
2023/06/22 07:58:45;;;;;;;8.80;6.55;;;;;;;;;;6267128;28;20454;-82
2023/06/22 08:01:48;;;;;;;10.02;6.40;;;;;;;;;;6268469;28;20028;-75
2023/06/22 08:04:49;;;;;;;12.45;7.80;;;;;;;;;;6266990;28;20506;-75
2023/06/22 08:07:49;;;;;;;11.50;6.23;;;;;;;;;;6266335;28;20023;-75
2023/06/22 08:10:49;;;;;;;9.45;5.82;;;;;;;;;;6265778;28;20025;-75
2023/06/22 08:13:50;;;;;;;9.43;5.93;;;;;;;;;;6263889;28;20037;-75
2023/06/22 08:16:50;;;;;;;7.37;5.17;;;;;;;;;;6264369;28;20013;-74
2023/06/22 08:19:50;;;;;;;13.43;6.68;;;;;;;;;;6265396;28;20032;-74
2023/06/22 08:22:51;;;;;;;11.23;6.80;;;;;;;;;;6262232;28;20090;-74
2023/06/22 08:25:51;;;;;;;9.88;6.75;;;;;;;;;;6266488;28;20031;-74
2023/06/22 08:28:52;;;;;;;8.15;6.45;;;;;;;;;;6265782;28;20043;-75
2023/06/22 08:31:52;;;;;;;11.52;8.13;;;;;;;;;;6265155;28;20082;-75
2023/06/22 08:34:53;;;;;;;11.05;6.22;;;;;;;;;;6267260;28;20017;-74
2023/06/22 08:37:54;;;;;;;8.30;5.88;;;;;;;;;;6269848;28;20501;-74
2023/06/22 08:40:54;;;;;;;13.00;6.95;;;;;;;;;;6263589;28;20025;-74
2023/06/22 08:43:54;;;;;;;11.03;6.50;;;;;;;;;;6268559;28;20493;-82
2023/06/22 08:46:54;;;;;;;10.07;6.80;;;;;;;;;;6269270;28;20033;-81
2023/06/22 08:49:55;;;;;;;11.50;5.97;;;;;;;;;;6269098;28;20474;-81
2023/06/22 08:52:55;;;;;;;9.83;5.30;;;;;;;;;;6268036;28;20124;-81
2023/06/22 08:55:55;;;;;;;11.07;6.15;;;;;;;;;;6272035;28;20021;-82
2023/06/22 08:58:55;;;;;;;10.43;5.87;;;;;;;;;;6272821;28;20136;-83
2023/06/22 09:01:56;;;;;;;10.43;5.93;;;;;;;;;;6271708;28;20025;-85
2023/06/22 09:04:57;;;;;;;8.88;6.22;;;;;;;;;;6270545;28;20028;-81
2023/06/22 09:07:58;;;;;;;11.40;7.50;;;;;;;;;;6272528;28;20025;-83
2023/06/22 09:10:58;;;;;;;21.65;7.85;;;;;;;;;;6272778;28;20024;-83
2023/06/22 09:13:59;;;;;;;9.60;6.43;;;;;;;;;;6270817;28;20045;-82
2023/06/22 09:16:59;;;;;;;9.33;6.33;;;;;;;;;;6250158;28;20124;-82
2023/06/22 09:19:59;;;;;;;9.37;6.37;;;;;;;;;;6273511;28;20263;-82
2023/06/22 09:22:59;;;;;;;8.17;5.97;;;;;;;;;;6272238;28;20423;-82
2023/06/22 09:25:59;;;;;;;8.17;6.30;;;;;;;;;;6270020;28;20362;-80
2023/06/22 09:29:00;;;;;;;7.43;5.43;;;;;;;;;;6269557;28;20108;-81
2023/06/22 09:32:00;;;;;;;9.63;6.07;;;;;;;;;;6269864;28;20025;-83
2023/06/22 09:35:05;;;;;;;19.10;7.90;;;;;;;;;;6269822;28;20502;-82
2023/06/22 09:38:05;;;;;;;8.55;5.45;;;;;;;;;;6269035;28;20036;-81
2023/06/22 09:41:05;;;;;;;12.53;5.93;;;;;;;;;;6269389;28;20110;-83
2023/06/22 09:44:06;;;;;;;8.55;5.93;;;;;;;;;;6266058;28;20029;-82
2023/06/22 09:47:06;;;;;;;9.00;6.00;;;;;;;;;;6268629;28;20035;-83
2023/06/22 09:50:07;;;;;;;5.63;5.03;;;;;;;;;;6268726;28;20039;-82
2023/06/22 09:53:07;;;;;;;9.77;5.85;;;;;;;;;;6270261;28;20020;-82
2023/06/22 09:56:11;;;;;;;10.30;5.83;;;;;;;;;;6273071;28;20433;-84
2023/06/22 09:59:11;;;;;;;9.77;5.57;;;;;;;;;;6269612;28;20133;-83
2023/06/22 10:02:11;;;;;;;10.03;5.77;;;;;;;;;;6270653;28;20025;-84
2023/06/22 10:05:11;;;;;;;6.87;5.33;;;;;;;;;;6266477;28;20049;-83
2023/06/22 10:08:11;;;;;;;9.57;6.20;;;;;;;;;;6265538;28;20111;-83
2023/06/22 10:11:12;;;;;;;8.20;6.17;;;;;;;;;;6265387;28;20048;-82
2023/06/22 10:14:13;;;;;;;8.88;5.65;;;;;;;;;;6267182;28;20553;-84
2023/06/22 10:17:13;;;;;;;25.02;8.00;;;;;;;;;;6251273;28;20029;-85
2023/06/22 10:20:14;;;;;;;8.85;6.05;;;;;;;;;;6272533;28;20362;-85
2023/06/22 10:23:14;;;;;;;9.70;5.68;;;;;;;;;;6250826;28;20028;-84
2023/06/22 10:26:15;;;;;;;11.23;6.07;;;;;;;;;;6245037;28;20033;-84
2023/06/22 10:29:16;;;;;;;10.25;6.32;;;;;;;;;;6246243;28;20025;-82
2023/06/22 10:32:16;;;;;;;10.05;6.20;;;;;;;;;;6263709;28;20476;-81
2023/06/22 10:35:16;;;;;;;10.73;6.43;;;;;;;;;;6256583;28;20446;-81
2023/06/22 10:38:16;;;;;;;8.77;6.00;;;;;;;;;;6262553;28;20036;-84
2023/06/22 10:41:17;;;;;;;9.27;6.45;;;;;;;;;;6244228;28;20021;-84
2023/06/22 10:44:17;;;;;;;11.82;5.97;;;;;;;;;;6261847;28;20027;-85
2023/06/22 10:47:17;;;;;;;12.60;6.07;;;;;;;;;;6265432;28;20063;-83
2023/06/22 10:50:18;;;;;;;9.25;5.60;;;;;;;;;;6265937;28;20015;-84
2023/06/22 10:53:18;;;;;;;11.57;7.00;;;;;;;;;;6262873;28;20025;-81
2023/06/22 10:56:19;;;;;;;9.23;6.63;;;;;;;;;;6276107;28;20882;-84
2023/06/22 10:59:21;;;;;;;6.88;5.53;;;;;;;;;;6271957;28;20013;-85
2023/06/22 11:02:21;;;;;;;9.43;7.28;;;;;;;;;;6263948;28;20035;-84
2023/06/22 11:05:21;;;;;;;13.73;6.73;;;;;;;;;;6261861;28;20399;-83
2023/06/22 11:08:21;;;;;;;8.77;6.57;;;;;;;;;;6268151;28;20387;-84
2023/06/22 11:11:21;;;;;;;8.30;6.07;;;;;;;;;;6267897;28;20114;-86
2023/06/22 11:14:22;;;;;;;7.80;6.80;;;;;;;;;;6266999;28;20068;-83
2023/06/22 11:17:22;;;;;;;10.32;6.20;;;;;;;;;;6258567;28;20063;-83
2023/06/22 11:20:23;;;;;;;8.70;6.00;;;;;;;;;;6273870;28;20024;-81
2023/06/22 11:23:26;;;;;;;9.70;7.10;;;;;;;;;;6264256;28;20541;-84
2023/06/22 11:26:27;;;;;;;6.82;6.00;;;;;;;;;;6263889;28;20451;-84
2023/06/22 11:29:27;;;;;;;9.25;7.00;;;;;;;;;;6260867;28;20759;-84
2023/06/22 11:32:27;;;;;;;8.35;6.40;;;;;;;;;;6266562;28;20079;-75
2023/06/22 11:35:27;;;;;;;10.02;6.70;;;;;;;;;;6258858;28;20490;-74
2023/06/22 11:38:28;;;;;;;9.30;6.33;;;;;;;;;;6257960;28;20064;-75
2023/06/22 11:41:28;;;;;;;10.13;7.03;;;;;;;;;;6261475;28;20017;-75
2023/06/22 11:44:28;;;;;;;12.27;6.93;;;;;;;;;;6265885;28;20116;-75
2023/06/22 11:47:29;;;;;;;9.93;6.70;;;;;;;;;;6247512;28;20494;-75
2023/06/22 11:50:30;;;;;;;8.80;6.50;;;;;;;;;;6267054;28;20091;-75
2023/06/22 11:53:30;;;;;;;8.52;6.30;;;;;;;;;;6271092;28;20017;-75
2023/06/22 11:56:30;;;;;;;10.37;6.80;;;;;;;;;;6260946;28;20079;-75
2023/06/22 11:59:30;;;;;;;12.70;6.57;;;;;;;;;;6266072;28;20020;-75
2023/06/22 12:02:30;;;;;;;7.20;5.77;;;;;;;;;;6263446;28;20024;-75
2023/06/22 12:05:31;;;;;;;7.80;5.85;;;;;;;;;;6264761;28;20033;-74
2023/06/22 12:08:31;;;;;;;11.00;5.55;;;;;;;;;;6264924;28;20021;-75
2023/06/22 12:11:31;;;;;;;12.02;6.78;;;;;;;;;;6265690;28;20467;-85
2023/06/22 12:14:31;;;;;;;9.65;6.55;;;;;;;;;;6269612;28;20118;-83
2023/06/22 12:17:31;;;;;;;9.52;6.38;;;;;;;;;;6271292;28;20388;-85
2023/06/22 12:20:32;;;;;;;6.43;5.20;;;;;;;;;;6281894;28;20056;-84
2023/06/22 12:23:32;;;;;;;8.80;6.43;;;;;;;;;;6272675;28;20017;-86
2023/06/22 12:26:32;;;;;;;15.70;6.90;;;;;;;;;;6267174;28;20043;-88
2023/06/22 12:29:32;;;;;;;8.52;6.15;;;;;;;;;;6271047;28;20032;-86
2023/06/22 12:32:32;;;;;;;10.93;6.30;;;;;;;;;;6253665;28;20021;-84
2023/06/22 12:35:32;;;;;;;8.33;5.20;;;;;;;;;;6256210;28;20056;-87
2023/06/22 12:38:33;;;;;;;8.77;5.53;;;;;;;;;;6280556;28;20138;-86
2023/06/22 12:41:34;;;;;;;8.50;5.90;;;;;;;;;;6267088;28;20395;-86
2023/06/22 12:44:35;;;;;;;9.80;6.18;;;;;;;;;;6266429;28;20048;-84
2023/06/22 12:47:35;;;;;;;11.98;5.78;;;;;;;;;;6271374;28;20066;-85
2023/06/22 12:50:35;;;;;;;7.63;6.43;;;;;;;;;;6271149;28;20109;-85
2023/06/22 12:53:35;;;;;;;8.73;5.97;;;;;;;;;;6266720;28;20017;-75
2023/06/22 12:56:36;;;;;;;9.50;5.97;;;;;;;;;;6274148;28;20101;-75
2023/06/22 12:59:37;;;;;;;8.23;6.50;;;;;;;;;;6276390;28;20028;-75
2023/06/22 13:02:37;;;;;;;8.90;6.18;;;;;;;;;;6278989;28;20032;-76
2023/06/22 13:05:38;;;;;;;9.23;6.17;;;;;;;;;;6275910;28;20024;-75
2023/06/22 13:08:38;;;;;;;7.18;6.43;;;;;;;;;;6276667;28;20025;-75
2023/06/22 13:11:38;;;;;;;8.90;6.17;;;;;;;;;;6272565;28;20099;-74
2023/06/22 13:14:38;;;;;;;7.93;6.07;;;;;;;;;;6266287;28;20491;-75
2023/06/22 13:17:39;;;;;;;8.07;6.00;;;;;;;;;;6278214;28;20031;-75
2023/06/22 13:20:39;;;;;;;8.37;6.03;;;;;;;;;;6275103;28;20417;-74
2023/06/22 13:23:40;;;;;;;10.20;5.93;;;;;;;;;;6274569;28;20445;-76
2023/06/22 13:26:40;;;;;;;7.28;6.13;;;;;;;;;;6275289;28;20021;-75
2023/06/22 13:29:41;;;;;;;9.33;5.83;;;;;;;;;;6270003;28;20111;-74
2023/06/22 13:32:41;;;;;;;8.43;6.07;;;;;;;;;;6271096;28;20479;-75
2023/06/22 13:35:44;;;;;;;6.72;5.50;;;;;;;;;;6266594;28;20725;-75
2023/06/22 13:38:45;;;;;;;7.85;5.72;;;;;;;;;;6267942;28;20475;-75
2023/06/22 13:41:45;;;;;;;8.77;5.90;;;;;;;;;;6268384;28;20016;-75
2023/06/22 13:44:45;;;;;;;8.75;5.97;;;;;;;;;;6269200;28;20037;-75
2023/06/22 13:47:45;;;;;;;11.93;5.87;;;;;;;;;;6269480;28;20041;-74
2023/06/22 13:50:46;;;;;;;7.10;6.30;;;;;;;;;;6268498;28;20032;-75
2023/06/22 13:53:47;;;;;;;8.00;6.40;;;;;;;;;;6268017;28;20035;-75
2023/06/22 13:56:47;;;;;;;10.00;6.53;;;;;;;;;;6269202;28;20681;-74
2023/06/22 13:59:47;;;;;;;;;;;;;;;;;;6275650;28;20017;-74
2023/06/22 14:02:47;;;;;;;10.23;5.95;;;;;;;;;;6269951;28;19917;-74
2023/06/22 14:05:48;;;;;;;6.87;5.57;;;;;;;;;;6268253;28;20484;-74
2023/06/22 14:08:48;;;;;;;9.30;6.10;;;;;;;;;;6263729;28;20087;-74
2023/06/22 14:11:48;;;;;;;6.07;5.20;;;;;;;;;;6274602;28;20107;-86
2023/06/22 14:14:48;;;;;;;11.37;6.30;;;;;;;;;;6267815;28;20800;-84
2023/06/22 14:17:48;;;;;;;14.27;6.63;;;;;;;;;;6265450;28;20028;-85
2023/06/22 14:20:49;;;;;;;8.43;5.85;;;;;;;;;;6266823;28;20091;-87
2023/06/22 14:23:49;;;;;;;8.18;5.70;;;;;;;;;;6247097;28;20519;-87
2023/06/22 14:26:49;;;;;;;8.67;6.30;;;;;;;;;;6269744;28;20510;-86
2023/06/22 14:29:49;;;;;;;7.35;5.82;;;;;;;;;;6269031;28;20021;-88
2023/06/22 14:32:50;;;;;;;12.27;6.53;;;;;;;;;;6267866;28;20466;-88
2023/06/22 14:35:50;;;;;;;7.50;5.30;;;;;;;;;;6267264;28;20013;-85
2023/06/22 14:38:50;;;;;;;9.37;6.07;;;;;;;;;;6266791;28;20021;-86
2023/06/22 14:41:50;;;;;;;6.73;5.97;;;;;;;;;;6269015;28;20017;-86
2023/06/22 14:44:50;;;;;;;7.72;6.03;;;;;;;;;;6270837;28;20035;-89
2023/06/22 14:47:51;;;;;;;8.83;6.47;;;;;;;;;;6261355;28;20441;-86
2023/06/22 14:50:51;;;;;;;10.13;5.63;;;;;;;;;;6266650;28;20017;-87
2023/06/22 14:53:51;;;;;;;7.17;5.60;;;;;;;;;;6246160;28;20017;-84
2023/06/22 14:56:51;;;;;;;8.03;6.33;;;;;;;;;;6264380;28;20635;-85
2023/06/22 14:59:52;;;;;;;10.85;6.72;;;;;;;;;;6249648;28;20025;-87
2023/06/22 15:02:52;;;;;;;8.50;6.57;;;;;;;;;;6268713;28;20106;-88
2023/06/22 15:05:52;;;;;;;6.63;5.37;;;;;;;;;;6255359;28;20456;-86
2023/06/22 15:08:53;;;;;;;8.32;6.28;;;;;;;;;;6252933;28;20130;-85
2023/06/22 15:11:53;;;;;;;8.30;6.18;;;;;;;;;;6258832;28;20036;-84
2023/06/22 15:14:53;;;;;;;7.88;5.47;;;;;;;;;;6267519;28;20171;-85
2023/06/22 15:17:53;;;;;;;8.70;6.23;;;;;;;;;;6268162;28;20033;-88
2023/06/22 15:20:54;;;;;;;11.82;5.75;;;;;;;;;;6269568;28;20082;-85
2023/06/22 15:23:54;;;;;;;8.27;5.93;;;;;;;;;;6268242;28;20029;-86
2023/06/22 15:26:55;;;;;;;7.13;5.50;;;;;;;;;;6267020;28;20412;-85
2023/06/22 15:29:56;;;;;;;8.13;6.25;;;;;;;;;;6272520;28;20021;-86
2023/06/22 15:32:56;;;;;;;7.45;5.68;;;;;;;;;;6278925;28;20553;-85
2023/06/22 15:35:56;;;;;;;10.07;6.18;;;;;;;;;;6266450;28;20071;-86
2023/06/22 15:38:57;;;;;;;10.60;5.87;;;;;;;;;;6273554;28;20039;-89
2023/06/22 15:41:57;;;;;;;9.38;5.80;;;;;;;;;;6269888;28;20033;-74
2023/06/22 15:44:57;;;;;;;7.17;5.40;;;;;;;;;;6246215;28;20021;-74
2023/06/22 15:47:57;;;;;;;8.75;5.78;;;;;;;;;;6266426;28;20068;-74
2023/06/22 15:50:57;;;;;;;11.30;6.35;;;;;;;;;;6264741;28;20044;-75
2023/06/22 15:53:58;;;;;;;9.05;6.68;;;;;;;;;;6266433;28;20017;-74
2023/06/22 15:56:58;;;;;;;8.47;6.23;;;;;;;;;;6261502;28;20021;-74
2023/06/22 15:59:58;;;;;;;8.50;5.50;;;;;;;;;;6262110;28;20728;-74
2023/06/22 16:02:58;;;;;;;8.32;5.50;;;;;;;;;;6265195;28;20021;-74
2023/06/22 16:05:58;;;;;;;7.13;5.35;;;;;;;;;;6265685;28;20029;-74
2023/06/22 16:08:59;;;;;;;8.07;5.97;;;;;;;;;;6265913;28;20029;-74
2023/06/22 16:11:59;;;;;;;8.43;5.88;;;;;;;;;;6270021;28;20036;-75
2023/06/22 16:14:59;;;;;;;6.97;5.57;;;;;;;;;;6264569;28;20530;-74
2023/06/22 16:17:59;;;;;;;8.67;6.37;;;;;;;;;;6266059;28;20143;-74
2023/06/22 16:21:00;;;;;;;8.50;6.20;;;;;;;;;;6265232;28;20048;-74
2023/06/22 16:24:00;;;;;;;7.05;5.78;;;;;;;;;;6264946;28;20471;-74
2023/06/22 16:27:00;;;;;;;11.10;6.20;;;;;;;;;;6263360;28;20025;-74
2023/06/22 16:30:01;;;;;;;11.60;6.18;;;;;;;;;;6260758;28;20052;-74
2023/06/22 16:33:02;;;;;;;9.37;6.17;;;;;;;;;;6266704;28;20395;-74
2023/06/22 16:36:02;;;;;;;8.30;6.53;;;;;;;;;;6248554;28;20037;-74
2023/06/22 16:39:03;;;;;;;9.40;7.03;;;;;;;;;;6266293;28;20032;-74
2023/06/22 16:42:03;;;;;;;9.43;6.60;;;;;;;;;;6259820;28;20025;-74
2023/06/22 16:45:04;;;;;;;9.70;6.32;;;;;;;;;;6262683;28;20086;-74
2023/06/22 16:48:05;;;;;;;11.02;6.63;;;;;;;;;;6265894;28;20029;-74
2023/06/22 16:51:05;;;;;;;11.20;6.33;;;;;;;;;;6265182;28;20379;-74
2023/06/22 16:54:06;;;;;;;8.20;6.35;;;;;;;;;;6267351;28;20778;-87
2023/06/22 16:57:07;;;;;;;8.38;6.57;;;;;;;;;;6271790;28;20025;-85
2023/06/22 17:00:11;;;;;;;10.68;6.32;;;;;;;;;;6250469;28;20420;-89
2023/06/22 17:03:15;;;;;;;10.68;6.90;;;;;;;;;;6273825;28;20032;-86
2023/06/22 17:06:16;;;;;;;9.75;6.80;;;;;;;;;;6276558;28;20029;-88
2023/06/22 17:09:16;;;;;;;10.95;6.07;;;;;;;;;;6273860;28;20061;-88
2023/06/22 17:12:22;;;;;;;8.27;6.10;;;;;;;;;;6273994;28;20033;-90
2023/06/22 17:15:24;;;;;;;12.00;7.75;;;;;;;;;;6274783;28;20353;-86
2023/06/22 17:18:25;;;;;;;12.50;7.82;;;;;;;;;;6281976;28;20061;-86
2023/06/22 17:21:26;;;;;;;8.90;7.22;;;;;;;;;;6278795;28;20036;-86
2023/06/22 17:24:26;;;;;;;10.52;7.30;;;;;;;;;;6279487;28;20029;-81
2023/06/22 17:27:27;;;;;;;9.33;7.10;;;;;;;;;;6277448;28;20052;-85
2023/06/22 17:30:28;;;;;;;9.68;7.18;;;;;;;;;;6278561;28;20031;-86
2023/06/22 17:33:28;;;;;;;9.07;6.50;;;;;;;;;;6279592;28;20025;-86
2023/06/22 17:36:28;;;;;;;9.07;6.90;;;;;;;;;;6279579;28;20558;-83
2023/06/22 17:39:29;;;;;;;10.60;7.53;;;;;;;;;;6283313;28;20024;-88
2023/06/22 17:42:29;;;;;;;11.13;7.35;;;;;;;;;;6286198;28;20042;-82
2023/06/22 17:45:29;;;;;;;9.97;7.20;;;;;;;;;;6283065;28;20021;-85
2023/06/22 17:48:30;;;;;;;14.05;8.02;;;;;;;;;;6276590;28;20391;-80
2023/06/22 17:51:31;;;;;;;13.43;8.20;;;;;;;;;;6277368;28;20032;-87